sensor_id;sensor_type;location;lat;lon;timestamp;pressure;altitude;pressure_sealevel;temperature;humidity
52535;BME280;38443;53.164;5.802;2023-02-10T00:01:13;103554.63;;;-1.45;100.00
52535;BME280;38443;53.164;5.802;2023-02-10T00:03:39;103548.56;;;-1.44;100.00
52535;BME280;38443;53.164;5.802;2023-02-10T00:06:04;103550.38;;;-1.43;100.00
52535;BME280;38443;53.164;5.802;2023-02-10T00:08:31;103543.84;;;-1.49;100.00
52535;BME280;38443;53.164;5.802;2023-02-10T00:10:57;103547.34;;;-1.49;100.00
52535;BME280;38443;53.164;5.802;2023-02-10T00:13:24;103552.00;;;-1.45;100.00
52535;BME280;38443;53.164;5.802;2023-02-10T00:15:49;103554.00;;;-1.41;100.00
52535;BME280;38443;53.164;5.802;2023-02-10T00:18:15;103554.38;;;-1.34;100.00
52535;BME280;38443;53.164;5.802;2023-02-10T00:20:40;103559.25;;;-1.41;100.00
52535;BME280;38443;53.164;5.802;2023-02-10T00:23:05;103561.09;;;-1.39;100.00
52535;BME280;38443;53.164;5.802;2023-02-10T00:25:34;103562.00;;;-1.39;100.00
52535;BME280;38443;53.164;5.802;2023-02-10T00:27:59;103559.66;;;-1.34;100.00
52535;BME280;38443;53.164;5.802;2023-02-10T00:30:25;103555.72;;;-1.28;100.00
52535;BME280;38443;53.164;5.802;2023-02-10T00:32:50;103554.81;;;-1.28;100.00
52535;BME280;38443;53.164;5.802;2023-02-10T00:35:15;103567.31;;;-1.24;100.00
52535;BME280;38443;53.164;5.802;2023-02-10T00:37:40;103567.94;;;-1.28;100.00
52535;BME280;38443;53.164;5.802;2023-02-10T00:40:06;103578.63;;;-1.25;100.00
52535;BME280;38443;53.164;5.802;2023-02-10T00:42:32;103579.47;;;-1.26;100.00
52535;BME280;38443;53.164;5.802;2023-02-10T00:44:57;103580.53;;;-1.23;100.00
52535;BME280;38443;53.164;5.802;2023-02-10T00:47:22;103571.38;;;-1.29;100.00
52535;BME280;38443;53.164;5.802;2023-02-10T00:49:51;103585.22;;;-1.32;100.00
52535;BME280;38443;53.164;5.802;2023-02-10T00:52:16;103573.88;;;-1.31;100.00
52535;BME280;38443;53.164;5.802;2023-02-10T00:54:42;103579.97;;;-1.32;100.00
52535;BME280;38443;53.164;5.802;2023-02-10T00:57:07;103587.13;;;-1.29;100.00
52535;BME280;38443;53.164;5.802;2023-02-10T00:59:33;103585.13;;;-1.33;100.00
52535;BME280;38443;53.164;5.802;2023-02-10T01:01:58;103588.53;;;-1.34;100.00
52535;BME280;38443;53.164;5.802;2023-02-10T01:04:23;103586.63;;;-1.37;100.00
52535;BME280;38443;53.164;5.802;2023-02-10T01:06:49;103576.34;;;-1.34;100.00
52535;BME280;38443;53.164;5.802;2023-02-10T01:09:14;103582.28;;;-1.36;100.00
52535;BME280;38443;53.164;5.802;2023-02-10T01:11:39;103585.91;;;-1.34;100.00
52535;BME280;38443;53.164;5.802;2023-02-10T01:14:05;103578.59;;;-1.40;100.00
52535;BME280;38443;53.164;5.802;2023-02-10T01:16:30;103585.44;;;-1.42;100.00
52535;BME280;38443;53.164;5.802;2023-02-10T01:18:58;103585.97;;;-1.48;100.00
52535;BME280;38443;53.164;5.802;2023-02-10T01:21:23;103588.59;;;-1.48;100.00
52535;BME280;38443;53.164;5.802;2023-02-10T01:23:48;103581.22;;;-1.40;100.00
52535;BME280;38443;53.164;5.802;2023-02-10T01:26:14;103585.53;;;-1.41;100.00
52535;BME280;38443;53.164;5.802;2023-02-10T01:28:40;103578.13;;;-1.33;100.00
52535;BME280;38443;53.164;5.802;2023-02-10T01:31:11;103576.34;;;-1.34;100.00
52535;BME280;38443;53.164;5.802;2023-02-10T01:33:37;103582.28;;;-1.36;100.00
52535;BME280;38443;53.164;5.802;2023-02-10T01:36:10;103583.00;;;-1.39;100.00
52535;BME280;38443;53.164;5.802;2023-02-10T01:38:36;103587.75;;;-1.47;100.00
52535;BME280;38443;53.164;5.802;2023-02-10T01:41:01;103598.09;;;-1.50;100.00
52535;BME280;38443;53.164;5.802;2023-02-10T01:43:27;103597.75;;;-1.54;100.00
52535;BME280;38443;53.164;5.802;2023-02-10T01:45:52;103604.63;;;-1.56;100.00
52535;BME280;38443;53.164;5.802;2023-02-10T01:48:18;103607.88;;;-1.61;100.00
52535;BME280;38443;53.164;5.802;2023-02-10T01:50:52;103605.47;;;-1.57;100.00
52535;BME280;38443;53.164;5.802;2023-02-10T01:53:18;103601.94;;;-1.58;100.00
52535;BME280;38443;53.164;5.802;2023-02-10T01:55:47;103600.09;;;-1.59;100.00
52535;BME280;38443;53.164;5.802;2023-02-10T01:58:15;103603.56;;;-1.60;100.00
52535;BME280;38443;53.164;5.802;2023-02-10T02:00:43;103600.59;;;-1.65;100.00
52535;BME280;38443;53.164;5.802;2023-02-10T02:03:08;103592.72;;;-1.65;100.00
52535;BME280;38443;53.164;5.802;2023-02-10T02:05:36;103595.28;;;-1.66;100.00
52535;BME280;38443;53.164;5.802;2023-02-10T02:08:13;103592.34;;;-1.57;100.00
52535;BME280;38443;53.164;5.802;2023-02-10T02:15:57;103588.38;;;-1.51;100.00
52535;BME280;38443;53.164;5.802;2023-02-10T02:18:35;103593.84;;;-1.48;100.00
52535;BME280;38443;53.164;5.802;2023-02-10T02:21:29;103594.03;;;-1.45;100.00
52535;BME280;38443;53.164;5.802;2023-02-10T02:32:30;103592.22;;;-1.46;100.00
52535;BME280;38443;53.164;5.802;2023-02-10T02:35:12;103592.50;;;-1.54;100.00
52535;BME280;38443;53.164;5.802;2023-02-10T02:37:44;103590.44;;;-1.60;100.00
52535;BME280;38443;53.164;5.802;2023-02-10T02:40:13;103592.84;;;-1.63;100.00
52535;BME280;38443;53.164;5.802;2023-02-10T02:42:39;103594.13;;;-1.56;100.00
52535;BME280;38443;53.164;5.802;2023-02-10T02:45:14;103592.00;;;-1.49;100.00
52535;BME280;38443;53.164;5.802;2023-02-10T02:53:10;103598.03;;;-1.36;100.00
52535;BME280;38443;53.164;5.802;2023-02-10T02:55:50;103597.25;;;-1.35;100.00
52535;BME280;38443;53.164;5.802;2023-02-10T02:58:20;103606.66;;;-1.39;100.00
52535;BME280;38443;53.164;5.802;2023-02-10T03:00:50;103604.53;;;-1.45;100.00
52535;BME280;38443;53.164;5.802;2023-02-10T03:03:16;103605.47;;;-1.44;100.00
52535;BME280;38443;53.164;5.802;2023-02-10T03:05:42;103604.91;;;-1.38;100.00
52535;BME280;38443;53.164;5.802;2023-02-10T03:08:07;103611.91;;;-1.39;100.00
52535;BME280;38443;53.164;5.802;2023-02-10T03:10:32;103615.03;;;-1.31;100.00
52535;BME280;38443;53.164;5.802;2023-02-10T03:12:58;103608.88;;;-1.32;100.00
52535;BME280;38443;53.164;5.802;2023-02-10T03:15:23;103597.13;;;-1.24;100.00
52535;BME280;38443;53.164;5.802;2023-02-10T03:17:48;103600.47;;;-1.26;100.00
52535;BME280;38443;53.164;5.802;2023-02-10T03:20:14;103599.94;;;-1.21;100.00
52535;BME280;38443;53.164;5.802;2023-02-10T03:22:41;103590.34;;;-1.20;100.00
52535;BME280;38443;53.164;5.802;2023-02-10T03:25:06;103586.78;;;-1.21;100.00
52535;BME280;38443;53.164;5.802;2023-02-10T03:27:32;103588.63;;;-1.19;100.00
52535;BME280;38443;53.164;5.802;2023-02-10T03:29:57;103588.53;;;-1.21;100.00
52535;BME280;38443;53.164;5.802;2023-02-10T03:32:22;103587.63;;;-1.22;100.00
52535;BME280;38443;53.164;5.802;2023-02-10T03:34:48;103589.97;;;-1.26;100.00
52535;BME280;38443;53.164;5.802;2023-02-10T03:37:13;103595.91;;;-1.29;100.00
52535;BME280;38443;53.164;5.802;2023-02-10T03:39:38;103594.81;;;-1.32;100.00
52535;BME280;38443;53.164;5.802;2023-02-10T03:42:04;103596.53;;;-1.33;100.00
52535;BME280;38443;53.164;5.802;2023-02-10T03:44:30;103597.03;;;-1.38;100.00
52535;BME280;38443;53.164;5.802;2023-02-10T03:46:55;103591.78;;;-1.38;100.00
52535;BME280;38443;53.164;5.802;2023-02-10T03:49:21;103596.84;;;-1.42;100.00
52535;BME280;38443;53.164;5.802;2023-02-10T03:51:46;103605.03;;;-1.37;100.00
52535;BME280;38443;53.164;5.802;2023-02-10T03:54:11;103603.91;;;-1.41;100.00
52535;BME280;38443;53.164;5.802;2023-02-10T03:56:37;103603.13;;;-1.39;100.00
52535;BME280;38443;53.164;5.802;2023-02-10T03:59:03;103605.47;;;-1.44;100.00
52535;BME280;38443;53.164;5.802;2023-02-10T04:01:29;103599.28;;;-1.45;100.00
52535;BME280;38443;53.164;5.802;2023-02-10T04:03:54;103592.63;;;-1.39;100.00
52535;BME280;38443;53.164;5.802;2023-02-10T04:06:20;103600.28;;;-1.43;100.00
52535;BME280;38443;53.164;5.802;2023-02-10T04:08:46;103599.66;;;-1.38;100.00
52535;BME280;38443;53.164;5.802;2023-02-10T04:11:11;103596.13;;;-1.39;100.00
52535;BME280;38443;53.164;5.802;2023-02-10T04:13:38;103596.13;;;-1.39;100.00
52535;BME280;38443;53.164;5.802;2023-02-10T04:16:05;103593.78;;;-1.34;100.00
52535;BME280;38443;53.164;5.802;2023-02-10T04:18:31;103594.41;;;-1.38;100.00
52535;BME280;38443;53.164;5.802;2023-02-10T04:20:57;103585.13;;;-1.33;100.00
52535;BME280;38443;53.164;5.802;2023-02-10T04:23:22;103581.16;;;-1.27;100.00
52535;BME280;38443;53.164;5.802;2023-02-10T04:25:48;103576.09;;;-1.24;100.00
52535;BME280;38443;53.164;5.802;2023-02-10T04:28:13;103580.63;;;-1.21;100.00
52535;BME280;38443;53.164;5.802;2023-02-10T04:30:38;103579.28;;;-1.14;100.00
52535;BME280;38443;53.164;5.802;2023-02-10T04:33:04;103588.72;;;-1.18;100.00
52535;BME280;38443;53.164;5.802;2023-02-10T04:35:29;103580.03;;;-1.17;100.00
52535;BME280;38443;53.164;5.802;2023-02-10T04:37:54;103590.34;;;-1.20;100.00
52535;BME280;38443;53.164;5.802;2023-02-10T04:40:21;103593.69;;;-1.23;100.00
52535;BME280;38443;53.164;5.802;2023-02-10T04:42:47;103588.41;;;-1.23;100.00
52535;BME280;38443;53.164;5.802;2023-02-10T04:45:12;103586.50;;;-1.25;100.00
52535;BME280;38443;53.164;5.802;2023-02-10T04:47:37;103584.91;;;-1.23;100.00
52535;BME280;38443;53.164;5.802;2023-02-10T04:50:03;103587.41;;;-1.25;100.00
52535;BME280;38443;53.164;5.802;2023-02-10T04:52:29;103586.41;;;-1.27;100.00
52535;BME280;38443;53.164;5.802;2023-02-10T04:54:54;103594.69;;;-1.21;100.00
52535;BME280;38443;53.164;5.802;2023-02-10T04:57:20;103584.91;;;-1.23;100.00
52535;BME280;38443;53.164;5.802;2023-02-10T04:59:45;103596.41;;;-1.21;100.00
52535;BME280;38443;53.164;5.802;2023-02-10T05:02:10;103599.25;;;-1.18;100.00
52535;BME280;38443;53.164;5.802;2023-02-10T05:04:36;103599.25;;;-1.18;100.00
52535;BME280;38443;53.164;5.802;2023-02-10T05:07:01;103599.25;;;-1.18;100.00
52535;BME280;38443;53.164;5.802;2023-02-10T05:09:27;103597.63;;;-1.16;100.00
52535;BME280;38443;53.164;5.802;2023-02-10T05:11:52;103598.53;;;-1.15;100.00
52535;BME280;38443;53.164;5.802;2023-02-10T05:14:18;103593.44;;;-1.12;100.00
52535;BME280;38443;53.164;5.802;2023-02-10T05:16:43;103592.75;;;-1.10;100.00
52535;BME280;38443;53.164;5.802;2023-02-10T05:19:08;103585.34;;;-1.02;100.00
52535;BME280;38443;53.164;5.802;2023-02-10T05:21:35;103590.41;;;-1.05;100.00
52535;BME280;38443;53.164;5.802;2023-02-10T05:24:00;103592.94;;;-1.07;100.00
52535;BME280;38443;53.164;5.802;2023-02-10T05:26:25;103600.19;;;-1.03;100.00
52535;BME280;38443;53.164;5.802;2023-02-10T05:28:51;103601.19;;;-1.01;100.00
52535;BME280;38443;53.164;5.802;2023-02-10T05:31:16;103597.44;;;-0.91;100.00
52535;BME280;38443;53.164;5.802;2023-02-10T05:33:41;103613.41;;;-0.88;100.00
52535;BME280;38443;53.164;5.802;2023-02-10T05:36:06;103616.22;;;-0.85;100.00
52535;BME280;38443;53.164;5.802;2023-02-10T05:38:32;103611.47;;;-0.90;100.00
52535;BME280;38443;53.164;5.802;2023-02-10T05:40:57;103609.94;;;-0.87;100.00
52535;BME280;38443;53.164;5.802;2023-02-10T05:43:23;103620.34;;;-0.88;100.00
52535;BME280;38443;53.164;5.802;2023-02-10T05:45:48;103621.78;;;-0.80;100.00
52535;BME280;38443;53.164;5.802;2023-02-10T05:48:13;103622.28;;;-0.57;100.00
52535;BME280;38443;53.164;5.802;2023-02-10T05:50:39;103619.38;;;-0.62;100.00
52535;BME280;38443;53.164;5.802;2023-02-10T05:53:05;103619.53;;;-0.59;100.00
52535;BME280;38443;53.164;5.802;2023-02-10T05:55:31;103631.91;;;-0.58;100.00
52535;BME280;38443;53.164;5.802;2023-02-10T05:57:56;103627.53;;;-0.57;100.00
52535;BME280;38443;53.164;5.802;2023-02-10T06:00:21;103620.66;;;-0.55;100.00
52535;BME280;38443;53.164;5.802;2023-02-10T06:02:47;103619.53;;;-0.59;100.00
52535;BME280;38443;53.164;5.802;2023-02-10T06:05:13;103617.41;;;-0.51;100.00
52535;BME280;38443;53.164;5.802;2023-02-10T06:07:38;103611.41;;;-0.49;100.00
52535;BME280;38443;53.164;5.802;2023-02-10T06:10:04;103621.59;;;-0.40;100.00
52535;BME280;38443;53.164;5.802;2023-02-10T06:12:29;103626.03;;;-0.39;100.00
52535;BME280;38443;53.164;5.802;2023-02-10T06:14:54;103615.97;;;-0.31;100.00
52535;BME280;38443;53.164;5.802;2023-02-10T06:17:20;103618.69;;;-0.30;100.00
52535;BME280;38443;53.164;5.802;2023-02-10T06:19:45;103611.81;;;-0.28;100.00
52535;BME280;38443;53.164;5.802;2023-02-10T06:22:10;103611.72;;;-0.29;100.00
52535;BME280;38443;53.164;5.802;2023-02-10T06:24:36;103618.88;;;-0.27;100.00
52535;BME280;38443;53.164;5.802;2023-02-10T06:27:01;103620.50;;;-0.29;100.00
52535;BME280;38443;53.164;5.802;2023-02-10T06:29:26;103618.34;;;-0.21;100.00
52535;BME280;38443;53.164;5.802;2023-02-10T06:31:52;103619.13;;;-0.22;100.00
52535;BME280;38443;53.164;5.802;2023-02-10T06:34:17;103615.16;;;-0.15;100.00
52535;BME280;38443;53.164;5.802;2023-02-10T06:36:43;103616.91;;;-0.16;100.00
52535;BME280;38443;53.164;5.802;2023-02-10T06:39:08;103622.22;;;-0.14;100.00
52535;BME280;38443;53.164;5.802;2023-02-10T06:41:34;103630.75;;;-0.18;100.00
52535;BME280;38443;53.164;5.802;2023-02-10T06:43:59;103640.28;;;-0.21;100.00
52535;BME280;38443;53.164;5.802;2023-02-10T06:46:25;103631.59;;;-0.19;100.00
52535;BME280;38443;53.164;5.802;2023-02-10T06:48:50;103624.34;;;-0.24;100.00
52535;BME280;38443;53.164;5.802;2023-02-10T06:51:16;103637.50;;;-0.24;100.00
52535;BME280;38443;53.164;5.802;2023-02-10T06:53:41;103632.66;;;-0.31;100.00
52535;BME280;38443;53.164;5.802;2023-02-10T06:56:07;103638.66;;;-0.33;100.00
52535;BME280;38443;53.164;5.802;2023-02-10T06:58:33;103644.44;;;-0.39;100.00
52535;BME280;38443;53.164;5.802;2023-02-10T07:00:58;103644.06;;;-0.45;100.00
52535;BME280;38443;53.164;5.802;2023-02-10T07:03:26;103651.34;;;-0.41;100.00
52535;BME280;38443;53.164;5.802;2023-02-10T07:05:51;103642.81;;;-0.37;100.00
52535;BME280;38443;53.164;5.802;2023-02-10T07:08:16;103644.66;;;-0.36;100.00
52535;BME280;38443;53.164;5.802;2023-02-10T07:10:42;103650.91;;;-0.34;100.00
52535;BME280;38443;53.164;5.802;2023-02-10T07:13:07;103646.44;;;-0.35;100.00
52535;BME280;38443;53.164;5.802;2023-02-10T07:15:33;103642.91;;;-0.35;100.00
52535;BME280;38443;53.164;5.802;2023-02-10T07:17:58;103646.28;;;-0.38;100.00
52535;BME280;38443;53.164;5.802;2023-02-10T07:20:24;103651.59;;;-0.36;100.00
52535;BME280;38443;53.164;5.802;2023-02-10T07:22:49;103650.97;;;-0.32;100.00
52535;BME280;38443;53.164;5.802;2023-02-10T07:25:16;103647.44;;;-0.33;100.00
52535;BME280;38443;53.164;5.802;2023-02-10T07:27:42;103658.34;;;-0.27;100.00
52535;BME280;38443;53.164;5.802;2023-02-10T07:30:08;103654.09;;;-0.25;100.00
52535;BME280;38443;53.164;5.802;2023-02-10T07:32:33;103657.81;;;-0.21;100.00
52535;BME280;38443;53.164;5.802;2023-02-10T07:34:59;103659.72;;;-0.18;100.00
52535;BME280;38443;53.164;5.802;2023-02-10T07:37:24;103660.09;;;-0.12;100.00
52535;BME280;38443;53.164;5.802;2023-02-10T07:39:51;103668.19;;;-0.09;100.00
52535;BME280;38443;53.164;5.802;2023-02-10T07:42:17;103664.06;;;-0.04;100.00
52535;BME280;38443;53.164;5.802;2023-02-10T07:44:42;103662.44;;;-0.02;100.00
52535;BME280;38443;53.164;5.802;2023-02-10T07:47:09;103669.91;;;0.05;100.00
52535;BME280;38443;53.164;5.802;2023-02-10T07:49:35;103667.47;;;0.08;100.00
52535;BME280;38443;53.164;5.802;2023-02-10T07:52:00;103671.47;;;0.16;100.00
52535;BME280;38443;53.164;5.802;2023-02-10T07:54:26;103664.28;;;0.29;100.00
52535;BME280;38443;53.164;5.802;2023-02-10T07:56:51;103662.16;;;0.38;100.00
52535;BME280;38443;53.164;5.802;2023-02-10T07:59:16;103672.06;;;0.42;100.00
52535;BME280;38443;53.164;5.802;2023-02-10T08:01:42;103668.97;;;0.49;100.00
52535;BME280;38443;53.164;5.802;2023-02-10T08:04:12;103669.53;;;0.58;100.00
52535;BME280;38443;53.164;5.802;2023-02-10T08:06:38;103665.63;;;0.83;100.00
52535;BME280;38443;53.164;5.802;2023-02-10T08:09:03;103662.91;;;1.13;100.00
52535;BME280;38443;53.164;5.802;2023-02-10T08:11:29;103664.47;;;1.26;100.00
52535;BME280;38443;53.164;5.802;2023-02-10T08:13:54;103662.38;;;1.20;100.00
52535;BME280;38443;53.164;5.802;2023-02-10T08:16:20;103658.94;;;1.05;100.00
52535;BME280;38443;53.164;5.802;2023-02-10T08:18:45;103663.69;;;0.95;100.00
52535;BME280;38443;53.164;5.802;2023-02-10T08:21:10;103660.50;;;0.86;100.00
52535;BME280;38443;53.164;5.802;2023-02-10T08:23:36;103656.72;;;0.81;100.00
52535;BME280;38443;53.164;5.802;2023-02-10T08:26:02;103652.91;;;0.76;100.00
52535;BME280;38443;53.164;5.802;2023-02-10T08:28:28;103658.03;;;0.73;100.00
52535;BME280;38443;53.164;5.802;2023-02-10T08:30:53;103658.03;;;0.73;100.00
52535;BME280;38443;53.164;5.802;2023-02-10T08:33:19;103656.13;;;0.70;100.00
52535;BME280;38443;53.164;5.802;2023-02-10T08:35:44;103662.22;;;0.69;100.00
52535;BME280;38443;53.164;5.802;2023-02-10T08:38:09;103659.56;;;0.69;100.00
52535;BME280;38443;53.164;5.802;2023-02-10T08:40:35;103659.66;;;0.71;100.00
52535;BME280;38443;53.164;5.802;2023-02-10T08:43:01;103665.03;;;0.72;100.00
52535;BME280;38443;53.164;5.802;2023-02-10T08:45:26;103660.91;;;0.77;100.00
52535;BME280;38443;53.164;5.802;2023-02-10T08:47:51;103666.38;;;0.81;100.00
52535;BME280;38443;53.164;5.802;2023-02-10T08:50:17;103660.59;;;0.88;100.00
52535;BME280;38443;53.164;5.802;2023-02-10T08:52:42;103656.31;;;0.90;100.00
52535;BME280;38443;53.164;5.802;2023-02-10T08:55:07;103656.59;;;0.94;100.00
52535;BME280;38443;53.164;5.802;2023-02-10T08:57:33;103651.03;;;1.05;100.00
52535;BME280;38443;53.164;5.802;2023-02-10T08:59:59;103644.00;;;1.22;100.00
52535;BME280;38443;53.164;5.802;2023-02-10T09:02:24;103649.06;;;1.33;100.00
52535;BME280;38443;53.164;5.802;2023-02-10T09:04:50;103646.41;;;1.50;100.00
52535;BME280;38443;53.164;5.802;2023-02-10T09:07:15;103649.38;;;1.56;100.00
52535;BME280;38443;53.164;5.802;2023-02-10T09:09:41;103653.25;;;1.63;100.00
52535;BME280;38443;53.164;5.802;2023-02-10T09:12:09;103664.81;;;1.65;100.00
52535;BME280;38443;53.164;5.802;2023-02-10T09:14:36;103654.56;;;1.71;100.00
52535;BME280;38443;53.164;5.802;2023-02-10T09:17:02;103657.09;;;1.86;100.00
52535;BME280;38443;53.164;5.802;2023-02-10T09:19:27;103648.91;;;1.97;100.00
52535;BME280;38443;53.164;5.802;2023-02-10T09:21:53;103656.03;;;2.16;100.00
52535;BME280;38443;53.164;5.802;2023-02-10T09:24:20;103643.28;;;2.26;100.00
52535;BME280;38443;53.164;5.802;2023-02-10T09:26:46;103647.97;;;2.31;100.00
52535;BME280;38443;53.164;5.802;2023-02-10T09:29:11;103644.19;;;2.44;100.00
52535;BME280;38443;53.164;5.802;2023-02-10T09:31:37;103643.75;;;2.53;100.00
52535;BME280;38443;53.164;5.802;2023-02-10T09:34:03;103643.47;;;2.65;100.00
52535;BME280;38443;53.164;5.802;2023-02-10T09:36:28;103637.53;;;2.70;100.00
52535;BME280;38443;53.164;5.802;2023-02-10T09:38:55;103643.06;;;2.75;100.00
52535;BME280;38443;53.164;5.802;2023-02-10T09:49:21;103637.41;;;3.05;100.00
52535;BME280;38443;53.164;5.802;2023-02-10T09:54:46;103645.25;;;3.21;100.00
52535;BME280;38443;53.164;5.802;2023-02-10T09:57:13;103648.16;;;3.27;100.00
52535;BME280;38443;53.164;5.802;2023-02-10T09:59:41;103639.53;;;3.31;100.00
52535;BME280;38443;53.164;5.802;2023-02-10T10:02:18;103638.97;;;3.38;100.00
52535;BME280;38443;53.164;5.802;2023-02-10T10:04:44;103642.84;;;3.47;100.00
52535;BME280;38443;53.164;5.802;2023-02-10T10:07:31;103650.41;;;3.57;100.00
52535;BME280;38443;53.164;5.802;2023-02-10T10:10:13;103650.09;;;3.70;100.00
52535;BME280;38443;53.164;5.802;2023-02-10T10:12:39;103654.25;;;3.85;100.00
52535;BME280;38443;53.164;5.802;2023-02-10T10:15:06;103653.00;;;3.96;100.00
52535;BME280;38443;53.164;5.802;2023-02-10T10:20:53;103646.94;;;4.19;100.00
52535;BME280;38443;53.164;5.802;2023-02-10T10:23:54;103650.81;;;4.28;100.00
52535;BME280;38443;53.164;5.802;2023-02-10T10:26:37;103653.72;;;4.34;100.00
52535;BME280;38443;53.164;5.802;2023-02-10T10:31:45;103646.28;;;4.46;100.00
52535;BME280;38443;53.164;5.802;2023-02-10T10:34:18;103658.03;;;4.53;100.00
52535;BME280;38443;53.164;5.802;2023-02-10T10:36:51;103645.16;;;4.62;100.00
52535;BME280;38443;53.164;5.802;2023-02-10T10:39:38;103645.47;;;4.70;100.00
52535;BME280;38443;53.164;5.802;2023-02-10T10:42:44;103643.06;;;4.76;100.00
52535;BME280;38443;53.164;5.802;2023-02-10T10:45:17;103642.19;;;4.77;100.00
52535;BME280;38443;53.164;5.802;2023-02-10T10:47:48;103643.13;;;4.77;100.00
52535;BME280;38443;53.164;5.802;2023-02-10T10:50:19;103634.25;;;4.77;100.00
52535;BME280;38443;53.164;5.802;2023-02-10T10:52:45;103630.75;;;4.78;100.00
52535;BME280;38443;53.164;5.802;2023-02-10T10:55:22;103630.75;;;4.78;100.00
52535;BME280;38443;53.164;5.802;2023-02-10T10:57:51;103637.03;;;4.80;100.00
52535;BME280;38443;53.164;5.802;2023-02-10T11:00:25;103627.22;;;4.77;100.00
52535;BME280;38443;53.164;5.802;2023-02-10T11:03:00;103624.66;;;4.80;100.00
52535;BME280;38443;53.164;5.802;2023-02-10T11:05:36;103628.47;;;4.87;100.00
52535;BME280;38443;53.164;5.802;2023-02-10T11:08:05;103630.19;;;4.87;100.00
52535;BME280;38443;53.164;5.802;2023-02-10T11:10:53;103625.88;;;4.89;100.00
52535;BME280;38443;53.164;5.802;2023-02-10T11:13:28;103617.31;;;4.96;100.00
52535;BME280;38443;53.164;5.802;2023-02-10T11:16:24;103614.09;;;5.05;100.00
52535;BME280;38443;53.164;5.802;2023-02-10T11:19:00;103611.72;;;5.12;100.00
52535;BME280;38443;53.164;5.802;2023-02-10T11:21:40;103616.22;;;5.13;100.00
52535;BME280;38443;53.164;5.802;2023-02-10T11:26:54;103604.91;;;5.19;100.00
52535;BME280;38443;53.164;5.802;2023-02-10T11:29:19;103605.84;;;5.21;100.00
52535;BME280;38443;53.164;5.802;2023-02-10T11:31:44;103591.63;;;5.19;100.00
52535;BME280;38443;53.164;5.802;2023-02-10T11:34:32;103597.13;;;5.24;100.00
52535;BME280;38443;53.164;5.802;2023-02-10T11:37:10;103595.53;;;5.29;100.00
52535;BME280;38443;53.164;5.802;2023-02-10T11:39:43;103587.75;;;5.33;100.00
52535;BME280;38443;53.164;5.802;2023-02-10T11:42:21;103582.53;;;5.36;100.00
52535;BME280;38443;53.164;5.802;2023-02-10T11:45:16;103585.31;;;5.39;100.00
52535;BME280;38443;53.164;5.802;2023-02-10T11:47:42;103571.31;;;5.45;100.00
52535;BME280;38443;53.164;5.802;2023-02-10T11:50:25;103577.44;;;5.43;100.00
52535;BME280;38443;53.164;5.802;2023-02-10T11:52:51;103575.69;;;5.43;100.00
52535;BME280;38443;53.164;5.802;2023-02-10T11:55:16;103575.75;;;5.45;100.00
52535;BME280;38443;53.164;5.802;2023-02-10T12:00:39;103564.38;;;5.49;100.00
52535;BME280;38443;53.164;5.802;2023-02-10T12:11:55;103547.66;;;5.51;100.00
52535;BME280;38443;53.164;5.802;2023-02-10T12:21:57;103558.09;;;5.47;100.00
52535;BME280;38443;53.164;5.802;2023-02-10T12:32:54;103532.97;;;5.63;100.00
52535;BME280;38443;53.164;5.802;2023-02-10T12:35:48;103533.13;;;5.67;100.00
52535;BME280;38443;53.164;5.802;2023-02-10T12:38:39;103527.88;;;5.69;100.00
52535;BME280;38443;53.164;5.802;2023-02-10T12:41:18;103521.72;;;5.70;100.00
52535;BME280;38443;53.164;5.802;2023-02-10T12:44:33;103515.72;;;5.75;100.00
52535;BME280;38443;53.164;5.802;2023-02-10T12:50:00;103514.06;;;5.79;100.00
52535;BME280;38443;53.164;5.802;2023-02-10T12:52:33;103498.09;;;5.79;100.00
52535;BME280;38443;53.164;5.802;2023-02-10T12:55:16;103505.25;;;5.80;100.00
52535;BME280;38443;53.164;5.802;2023-02-10T12:57:47;103502.44;;;5.75;100.00
52535;BME280;38443;53.164;5.802;2023-02-10T13:00:34;103490.03;;;5.76;100.00
52535;BME280;38443;53.164;5.802;2023-02-10T13:03:05;103488.22;;;5.75;100.00
52535;BME280;38443;53.164;5.802;2023-02-10T13:05:43;103483.03;;;5.78;100.00
52535;BME280;38443;53.164;5.802;2023-02-10T13:08:16;103479.56;;;5.80;100.00
52535;BME280;38443;53.164;5.802;2023-02-10T13:10:46;103475.09;;;5.79;100.00
52535;BME280;38443;53.164;5.802;2023-02-10T13:13:13;103483.09;;;5.79;100.00
52535;BME280;38443;53.164;5.802;2023-02-10T13:15:50;103484.88;;;5.80;100.00
52535;BME280;38443;53.164;5.802;2023-02-10T13:18:23;103475.94;;;5.78;100.00
52535;BME280;38443;53.164;5.802;2023-02-10T13:20:58;103468.97;;;5.82;100.00
52535;BME280;38443;53.164;5.802;2023-02-10T13:23:52;103464.56;;;5.83;100.00
52535;BME280;38443;53.164;5.802;2023-02-10T13:29:41;103448.72;;;5.86;100.00
52535;BME280;38443;53.164;5.802;2023-02-10T13:34:53;103443.25;;;5.81;100.00
52535;BME280;38443;53.164;5.802;2023-02-10T13:39:56;103452.91;;;5.77;100.00
52535;BME280;38443;53.164;5.802;2023-02-10T13:44:56;103439.63;;;5.79;100.00
52535;BME280;38443;53.164;5.802;2023-02-10T13:50:02;103446.78;;;5.80;100.00
52535;BME280;38443;53.164;5.802;2023-02-10T13:52:32;103453.78;;;5.78;100.00
52535;BME280;38443;53.164;5.802;2023-02-10T13:58:24;103452.78;;;5.74;100.00
52535;BME280;38443;53.164;5.802;2023-02-10T14:00:53;103454.53;;;5.74;100.00
52535;BME280;38443;53.164;5.802;2023-02-10T14:03:26;103438.53;;;5.72;100.00
52535;BME280;38443;53.164;5.802;2023-02-10T14:11:02;103431.53;;;5.74;100.00
52535;BME280;38443;53.164;5.802;2023-02-10T14:13:31;103412.88;;;5.73;100.00
52535;BME280;38443;53.164;5.802;2023-02-10T14:16:07;103425.38;;;5.75;100.00
52535;BME280;38443;53.164;5.802;2023-02-10T14:18:37;103419.19;;;5.76;100.00
52535;BME280;38443;53.164;5.802;2023-02-10T14:21:10;103421.75;;;5.73;100.00